sensor_id;sensor_type;location;lat;lon;timestamp;pressure;altitude;pressure_sealevel;temperature;humidity
35892;BME280;21993;42.672;23.296;2023-05-09T00:01:11;95000.25;;;16.23;65.11
35892;BME280;21993;42.672;23.296;2023-05-09T00:03:37;95001.38;;;16.21;64.82
35892;BME280;21993;42.672;23.296;2023-05-09T00:06:04;95002.72;;;16.17;65.07
35892;BME280;21993;42.672;23.296;2023-05-09T00:08:31;95000.88;;;16.17;65.08
35892;BME280;21993;42.672;23.296;2023-05-09T00:10:56;94996.22;;;16.11;65.52
35892;BME280;21993;42.672;23.296;2023-05-09T00:13:22;95000.56;;;16.20;65.34
35892;BME280;21993;42.672;23.296;2023-05-09T00:15:48;95000.06;;;16.17;65.41
35892;BME280;21993;42.672;23.296;2023-05-09T00:18:14;94994.25;;;16.13;65.26
35892;BME280;21993;42.672;23.296;2023-05-09T00:20:39;94991.94;;;16.10;65.48
35892;BME280;21993;42.672;23.296;2023-05-09T00:23:06;94992.41;;;16.14;65.28
35892;BME280;21993;42.672;23.296;2023-05-09T00:25:31;94992.09;;;16.09;64.80
35892;BME280;21993;42.672;23.296;2023-05-09T00:27:57;94988.47;;;16.10;64.85
35892;BME280;21993;42.672;23.296;2023-05-09T00:30:22;94982.00;;;16.12;65.03
35892;BME280;21993;42.672;23.296;2023-05-09T00:32:48;94987.78;;;16.08;65.11
35892;BME280;21993;42.672;23.296;2023-05-09T00:35:13;94989.28;;;16.10;65.10
35892;BME280;21993;42.672;23.296;2023-05-09T00:37:38;94981.81;;;16.05;65.23
35892;BME280;21993;42.672;23.296;2023-05-09T00:40:05;94975.69;;;16.05;65.29
35892;BME280;21993;42.672;23.296;2023-05-09T00:42:31;94978.84;;;16.00;65.48
35892;BME280;21993;42.672;23.296;2023-05-09T00:44:57;94975.69;;;16.05;65.29
35892;BME280;21993;42.672;23.296;2023-05-09T00:47:23;94979.50;;;16.11;65.03
35892;BME280;21993;42.672;23.296;2023-05-09T00:49:48;94984.00;;;16.10;64.66
35892;BME280;21993;42.672;23.296;2023-05-09T00:52:14;94986.47;;;16.12;64.81
35892;BME280;21993;42.672;23.296;2023-05-09T00:54:40;94986.16;;;16.07;64.62
35892;BME280;21993;42.672;23.296;2023-05-09T00:57:05;94991.28;;;16.08;64.76
35892;BME280;21993;42.672;23.296;2023-05-09T00:59:31;94989.25;;;16.02;65.28
35892;BME280;21993;42.672;23.296;2023-05-09T01:01:56;94981.66;;;15.99;65.28
35892;BME280;21993;42.672;23.296;2023-05-09T01:04:22;94978.19;;;15.98;65.00
35892;BME280;21993;42.672;23.296;2023-05-09T01:07:01;94986.13;;;15.98;65.20
35892;BME280;21993;42.672;23.296;2023-05-09T01:12:20;94979.00;;;15.91;65.18
35892;BME280;21993;42.672;23.296;2023-05-09T01:15:02;94978.78;;;15.84;65.36
35892;BME280;21993;42.672;23.296;2023-05-09T01:17:45;94984.25;;;15.83;65.72
35892;BME280;21993;42.672;23.296;2023-05-09T01:20:15;94982.59;;;15.82;65.68
35892;BME280;21993;42.672;23.296;2023-05-09T01:22:47;94979.94;;;15.82;65.63
35892;BME280;21993;42.672;23.296;2023-05-09T01:25:42;94972.47;;;15.77;65.59
35892;BME280;21993;42.672;23.296;2023-05-09T01:30:46;94973.47;;;15.76;65.67
35892;BME280;21993;42.672;23.296;2023-05-09T01:33:17;94977.56;;;15.62;66.01
35892;BME280;21993;42.672;23.296;2023-05-09T01:35:47;94981.84;;;15.63;65.54
35892;BME280;21993;42.672;23.296;2023-05-09T01:38:17;94978.09;;;15.66;65.67
35892;BME280;21993;42.672;23.296;2023-05-09T01:40:46;94980.38;;;15.61;66.00
35892;BME280;21993;42.672;23.296;2023-05-09T01:43:14;94971.38;;;15.54;66.09
35892;BME280;21993;42.672;23.296;2023-05-09T01:45:41;94980.41;;;15.69;65.48
35892;BME280;21993;42.672;23.296;2023-05-09T01:48:08;94979.56;;;15.68;65.67
35892;BME280;21993;42.672;23.296;2023-05-09T01:50:36;94987.34;;;15.70;65.48
35892;BME280;21993;42.672;23.296;2023-05-09T01:53:05;94994.78;;;15.66;65.87
35892;BME280;21993;42.672;23.296;2023-05-09T01:55:33;94988.97;;;15.63;66.12
35892;BME280;21993;42.672;23.296;2023-05-09T01:58:02;94995.25;;;15.62;65.85
35892;BME280;21993;42.672;23.296;2023-05-09T02:00:30;94994.84;;;15.48;66.31
35892;BME280;21993;42.672;23.296;2023-05-09T02:02:56;94987.25;;;15.54;66.05
35892;BME280;21993;42.672;23.296;2023-05-09T02:05:26;94987.00;;;15.65;66.03
35892;BME280;21993;42.672;23.296;2023-05-09T02:07:54;94991.41;;;15.56;65.86
35892;BME280;21993;42.672;23.296;2023-05-09T02:10:22;94988.06;;;15.54;66.03
35892;BME280;21993;42.672;23.296;2023-05-09T02:12:50;94984.97;;;15.59;66.02
35892;BME280;21993;42.672;23.296;2023-05-09T02:15:15;94991.53;;;15.55;65.82
35892;BME280;21993;42.672;23.296;2023-05-09T02:17:41;94990.38;;;15.49;66.21
35892;BME280;21993;42.672;23.296;2023-05-09T02:20:07;94986.16;;;15.30;66.66
35892;BME280;21993;42.672;23.296;2023-05-09T02:22:34;94985.69;;;15.35;66.39
35892;BME280;21993;42.672;23.296;2023-05-09T02:25:01;94986.19;;;15.38;66.47
35892;BME280;21993;42.672;23.296;2023-05-09T02:27:33;94988.19;;;15.44;66.28
35892;BME280;21993;42.672;23.296;2023-05-09T02:30:03;94982.69;;;15.38;66.59
35892;BME280;21993;42.672;23.296;2023-05-09T02:32:33;94988.22;;;15.53;66.16
35892;BME280;21993;42.672;23.296;2023-05-09T02:35:00;94980.78;;;15.48;66.04
35892;BME280;21993;42.672;23.296;2023-05-09T02:37:26;94982.75;;;15.46;66.14
35892;BME280;21993;42.672;23.296;2023-05-09T02:39:53;94985.59;;;15.53;66.23
35892;BME280;21993;42.672;23.296;2023-05-09T02:42:23;94978.44;;;15.45;66.50
35892;BME280;21993;42.672;23.296;2023-05-09T02:44:53;94980.09;;;15.46;66.60
35892;BME280;21993;42.672;23.296;2023-05-09T02:47:19;94975.63;;;15.46;66.71
35892;BME280;21993;42.672;23.296;2023-05-09T02:49:45;94991.66;;;15.45;66.79
35892;BME280;21993;42.672;23.296;2023-05-09T02:52:10;94986.38;;;15.45;66.84
35892;BME280;21993;42.672;23.296;2023-05-09T02:54:36;94978.81;;;15.50;66.74
35892;BME280;21993;42.672;23.296;2023-05-09T02:57:02;94985.56;;;15.44;66.86
35892;BME280;21993;42.672;23.296;2023-05-09T02:59:28;94986.22;;;15.46;66.39
35892;BME280;21993;42.672;23.296;2023-05-09T03:01:53;94986.22;;;15.46;66.73
35892;BME280;21993;42.672;23.296;2023-05-09T03:04:19;94988.19;;;15.44;67.02
35892;BME280;21993;42.672;23.296;2023-05-09T03:06:44;94986.03;;;15.40;67.21
35892;BME280;21993;42.672;23.296;2023-05-09T03:09:09;94991.38;;;15.48;66.94
35892;BME280;21993;42.672;23.296;2023-05-09T03:11:35;94993.00;;;15.41;66.95
35892;BME280;21993;42.672;23.296;2023-05-09T03:14:02;94990.84;;;15.44;67.14
35892;BME280;21993;42.672;23.296;2023-05-09T03:16:27;94999.78;;;15.43;67.28
35892;BME280;21993;42.672;23.296;2023-05-09T03:18:52;94998.13;;;15.42;67.33
35892;BME280;21993;42.672;23.296;2023-05-09T03:21:18;95002.59;;;15.42;67.18
35892;BME280;21993;42.672;23.296;2023-05-09T03:23:43;95012.63;;;15.38;67.69
35892;BME280;21993;42.672;23.296;2023-05-09T03:26:09;95015.16;;;15.40;67.53
35892;BME280;21993;42.672;23.296;2023-05-09T03:28:34;95020.59;;;15.46;67.72
35892;BME280;21993;42.672;23.296;2023-05-09T03:31:00;95020.16;;;15.51;67.63
35892;BME280;21993;42.672;23.296;2023-05-09T03:33:25;95017.47;;;15.43;67.91
35892;BME280;21993;42.672;23.296;2023-05-09T03:35:51;95023.09;;;15.40;68.26
35892;BME280;21993;42.672;23.296;2023-05-09T03:38:16;95029.19;;;15.40;68.33
35892;BME280;21993;42.672;23.296;2023-05-09T03:40:42;95036.25;;;15.06;69.42
35892;BME280;21993;42.672;23.296;2023-05-09T03:43:07;95031.16;;;15.12;69.58
35892;BME280;21993;42.672;23.296;2023-05-09T03:45:33;95034.56;;;15.23;69.38
35892;BME280;21993;42.672;23.296;2023-05-09T03:48:00;95032.78;;;15.31;69.15
35892;BME280;21993;42.672;23.296;2023-05-09T03:50:28;95037.72;;;15.26;68.74
35892;BME280;21993;42.672;23.296;2023-05-09T03:52:53;95039.19;;;15.29;68.21
35892;BME280;21993;42.672;23.296;2023-05-09T03:55:21;95031.91;;;15.23;68.41
35892;BME280;21993;42.672;23.296;2023-05-09T03:57:48;95040.66;;;15.23;68.66
35892;BME280;21993;42.672;23.296;2023-05-09T04:00:13;95035.50;;;15.13;69.06
35892;BME280;21993;42.672;23.296;2023-05-09T04:02:40;95043.38;;;15.05;69.29
35892;BME280;21993;42.672;23.296;2023-05-09T04:05:05;95044.53;;;15.11;68.90
35892;BME280;21993;42.672;23.296;2023-05-09T04:07:31;95033.66;;;15.14;69.04
35892;BME280;21993;42.672;23.296;2023-05-09T04:09:57;95037.03;;;15.24;68.79
35892;BME280;21993;42.672;23.296;2023-05-09T04:12:23;95040.47;;;15.16;68.98
35892;BME280;21993;42.672;23.296;2023-05-09T04:14:48;95036.97;;;15.16;68.99
35892;BME280;21993;42.672;23.296;2023-05-09T04:17:14;95043.16;;;15.25;68.79
35892;BME280;21993;42.672;23.296;2023-05-09T04:19:39;95038.97;;;15.14;68.62
35892;BME280;21993;42.672;23.296;2023-05-09T04:22:05;95032.25;;;15.02;69.08
35892;BME280;21993;42.672;23.296;2023-05-09T04:24:30;95040.25;;;15.10;68.93
35892;BME280;21993;42.672;23.296;2023-05-09T04:26:56;95041.69;;;15.04;69.26
35892;BME280;21993;42.672;23.296;2023-05-09T04:29:21;95040.78;;;14.96;69.39
35892;BME280;21993;42.672;23.296;2023-05-09T04:31:47;95035.28;;;15.07;68.86
35892;BME280;21993;42.672;23.296;2023-05-09T04:34:12;95038.97;;;15.14;69.05
35892;BME280;21993;42.672;23.296;2023-05-09T04:36:38;95044.53;;;15.11;69.20
35892;BME280;21993;42.672;23.296;2023-05-09T04:39:03;95045.22;;;15.13;68.76
35892;BME280;21993;42.672;23.296;2023-05-09T04:41:32;95043.94;;;15.17;68.96
35892;BME280;21993;42.672;23.296;2023-05-09T04:43:58;95048.22;;;15.18;68.61
35892;BME280;21993;42.672;23.296;2023-05-09T04:46:23;95049.94;;;15.27;68.57
35892;BME280;21993;42.672;23.296;2023-05-09T04:48:48;95046.47;;;15.27;68.65
35892;BME280;21993;42.672;23.296;2023-05-09T04:51:14;95040.41;;;15.34;68.57
35892;BME280;21993;42.672;23.296;2023-05-09T04:53:39;95045.75;;;15.42;68.08
35892;BME280;21993;42.672;23.296;2023-05-09T04:56:05;95043.09;;;15.42;68.18
35892;BME280;21993;42.672;23.296;2023-05-09T04:58:30;95045.75;;;15.42;68.14
35892;BME280;21993;42.672;23.296;2023-05-09T05:00:58;95043.91;;;15.43;67.98
35892;BME280;21993;42.672;23.296;2023-05-09T05:03:23;95044.38;;;15.38;68.21
35892;BME280;21993;42.672;23.296;2023-05-09T05:05:49;95039.41;;;15.35;68.53
35892;BME280;21993;42.672;23.296;2023-05-09T05:08:14;95046.84;;;15.32;68.90
35892;BME280;21993;42.672;23.296;2023-05-09T05:10:40;95043.75;;;15.44;68.61
35892;BME280;21993;42.672;23.296;2023-05-09T05:13:05;95042.81;;;15.54;68.75
35892;BME280;21993;42.672;23.296;2023-05-09T05:15:31;95044.47;;;15.55;68.98
35892;BME280;21993;42.672;23.296;2023-05-09T05:17:56;95044.69;;;15.61;67.79
35892;BME280;21993;42.672;23.296;2023-05-09T05:20:22;95034.69;;;15.47;67.75
35892;BME280;21993;42.672;23.296;2023-05-09T05:22:47;95050.75;;;15.54;67.71
35892;BME280;21993;42.672;23.296;2023-05-09T05:25:12;95048.19;;;15.62;67.42
35892;BME280;21993;42.672;23.296;2023-05-09T05:27:38;95050.81;;;15.62;66.74
35892;BME280;21993;42.672;23.296;2023-05-09T05:30:04;95043.25;;;15.67;66.33
35892;BME280;21993;42.672;23.296;2023-05-09T05:32:29;95046.72;;;15.67;65.94
35892;BME280;21993;42.672;23.296;2023-05-09T05:34:55;95047.72;;;15.40;66.10
35892;BME280;21993;42.672;23.296;2023-05-09T05:37:21;95050.91;;;15.52;65.55
35892;BME280;21993;42.672;23.296;2023-05-09T05:39:46;95055.22;;;15.53;65.03
35892;BME280;21993;42.672;23.296;2023-05-09T05:42:12;95046.22;;;15.64;65.05
35892;BME280;21993;42.672;23.296;2023-05-09T05:44:37;95050.59;;;15.55;65.05
35892;BME280;21993;42.672;23.296;2023-05-09T05:47:03;95051.53;;;15.64;64.48
35892;BME280;21993;42.672;23.296;2023-05-09T05:49:28;95053.50;;;15.70;63.87
35892;BME280;21993;42.672;23.296;2023-05-09T05:51:54;95053.72;;;15.76;63.77
35892;BME280;21993;42.672;23.296;2023-05-09T05:54:19;95050.56;;;15.73;63.88
35892;BME280;21993;42.672;23.296;2023-05-09T05:56:44;95052.91;;;15.84;63.36
35892;BME280;21993;42.672;23.296;2023-05-09T05:59:10;95059.38;;;15.56;64.55
35892;BME280;21993;42.672;23.296;2023-05-09T06:01:35;95057.41;;;15.58;64.54
35892;BME280;21993;42.672;23.296;2023-05-09T06:04:01;95052.84;;;15.68;64.90
35892;BME280;21993;42.672;23.296;2023-05-09T06:06:26;95047.56;;;15.68;65.31
35892;BME280;21993;42.672;23.296;2023-05-09T06:08:52;95055.56;;;15.84;65.24
35892;BME280;21993;42.672;23.296;2023-05-09T06:11:17;95054.41;;;15.87;64.81
35892;BME280;21993;42.672;23.296;2023-05-09T06:13:43;95045.94;;;15.49;65.43
35892;BME280;21993;42.672;23.296;2023-05-09T06:16:09;95057.47;;;15.66;65.84
35892;BME280;21993;42.672;23.296;2023-05-09T06:18:35;95048.59;;;15.75;65.82
35892;BME280;21993;42.672;23.296;2023-05-09T06:21:05;95049.28;;;15.85;65.07
35892;BME280;21993;42.672;23.296;2023-05-09T06:23:31;95046.84;;;15.92;64.42
35892;BME280;21993;42.672;23.296;2023-05-09T06:25:57;95053.59;;;15.86;64.26
35892;BME280;21993;42.672;23.296;2023-05-09T06:28:22;95048.94;;;15.88;64.08
35892;BME280;21993;42.672;23.296;2023-05-09T06:30:48;95053.09;;;15.83;63.43
35892;BME280;21993;42.672;23.296;2023-05-09T06:33:13;95056.66;;;15.65;63.70
35892;BME280;21993;42.672;23.296;2023-05-09T06:35:38;95062.44;;;15.69;63.90
35892;BME280;21993;42.672;23.296;2023-05-09T06:38:04;95054.88;;;15.74;62.86
35892;BME280;21993;42.672;23.296;2023-05-09T06:40:29;95061.31;;;15.80;63.05
35892;BME280;21993;42.672;23.296;2023-05-09T06:42:55;95058.22;;;15.58;63.96
35892;BME280;21993;42.672;23.296;2023-05-09T06:45:20;95057.09;;;15.61;63.73
35892;BME280;21993;42.672;23.296;2023-05-09T06:47:45;95054.22;;;15.54;64.34
35892;BME280;21993;42.672;23.296;2023-05-09T06:50:11;95057.09;;;15.35;64.43
35892;BME280;21993;42.672;23.296;2023-05-09T06:52:36;95058.34;;;15.48;64.50
35892;BME280;21993;42.672;23.296;2023-05-09T06:55:04;95056.81;;;15.64;64.67
35892;BME280;21993;42.672;23.296;2023-05-09T06:57:30;95059.63;;;15.70;63.80
35892;BME280;21993;42.672;23.296;2023-05-09T06:59:56;95056.81;;;15.72;63.35
35892;BME280;21993;42.672;23.296;2023-05-09T07:02:22;95060.13;;;15.66;63.96
35892;BME280;21993;42.672;23.296;2023-05-09T07:04:47;95052.38;;;15.72;61.74
35892;BME280;21993;42.672;23.296;2023-05-09T07:07:13;95058.91;;;15.60;61.90
35892;BME280;21993;42.672;23.296;2023-05-09T07:09:39;95052.28;;;15.56;61.85
35892;BME280;21993;42.672;23.296;2023-05-09T07:12:04;95048.72;;;15.39;62.39
35892;BME280;21993;42.672;23.296;2023-05-09T07:14:30;95042.31;;;15.50;62.39
35892;BME280;21993;42.672;23.296;2023-05-09T07:16:58;95044.44;;;15.72;62.25
35892;BME280;21993;42.672;23.296;2023-05-09T07:19:23;95046.44;;;15.79;62.23
35892;BME280;21993;42.672;23.296;2023-05-09T07:21:49;95054.25;;;15.88;61.66
35892;BME280;21993;42.672;23.296;2023-05-09T07:24:14;95046.31;;;15.88;61.73
35892;BME280;21993;42.672;23.296;2023-05-09T07:26:40;95057.09;;;15.95;61.52
35892;BME280;21993;42.672;23.296;2023-05-09T07:29:05;95051.78;;;15.95;61.81
35892;BME280;21993;42.672;23.296;2023-05-09T07:31:31;95054.44;;;15.95;61.31
35892;BME280;21993;42.672;23.296;2023-05-09T07:33:57;95052.81;;;16.02;61.03
35892;BME280;21993;42.672;23.296;2023-05-09T07:36:22;95050.16;;;16.02;61.01
35892;BME280;21993;42.672;23.296;2023-05-09T07:38:47;95053.19;;;16.07;61.21
35892;BME280;21993;42.672;23.296;2023-05-09T07:41:14;95056.63;;;15.99;60.91
35892;BME280;21993;42.672;23.296;2023-05-09T07:43:40;95060.31;;;16.15;60.49
35892;BME280;21993;42.672;23.296;2023-05-09T07:46:06;95058.44;;;15.99;60.96
35892;BME280;21993;42.672;23.296;2023-05-09T07:48:31;95047.50;;;15.94;60.86
35892;BME280;21993;42.672;23.296;2023-05-09T07:50:57;95055.81;;;15.99;60.96
35892;BME280;21993;42.672;23.296;2023-05-09T07:53:22;95060.25;;;15.98;61.23
35892;BME280;21993;42.672;23.296;2023-05-09T07:55:47;95051.19;;;16.09;60.68
35892;BME280;21993;42.672;23.296;2023-05-09T07:58:17;95059.16;;;16.17;60.76
35892;BME280;21993;42.672;23.296;2023-05-09T08:00:42;95050.00;;;16.03;60.91
35892;BME280;21993;42.672;23.296;2023-05-09T08:03:08;95044.91;;;16.10;60.76
35892;BME280;21993;42.672;23.296;2023-05-09T08:05:33;95041.09;;;16.13;60.87
35892;BME280;21993;42.672;23.296;2023-05-09T08:07:59;95043.56;;;16.06;60.62
35892;BME280;21993;42.672;23.296;2023-05-09T08:10:24;95049.38;;;16.10;61.00
35892;BME280;21993;42.672;23.296;2023-05-09T08:12:51;95046.09;;;16.16;60.18
35892;BME280;21993;42.672;23.296;2023-05-09T08:15:16;95038.81;;;16.18;60.64
35892;BME280;21993;42.672;23.296;2023-05-09T08:17:42;95047.44;;;16.28;60.32
35892;BME280;21993;42.672;23.296;2023-05-09T08:20:07;95050.34;;;16.00;60.79
35892;BME280;21993;42.672;23.296;2023-05-09T08:22:33;95051.03;;;16.11;61.29
35892;BME280;21993;42.672;23.296;2023-05-09T08:24:59;95052.50;;;16.13;60.57
35892;BME280;21993;42.672;23.296;2023-05-09T08:27:24;95052.66;;;16.03;61.34
35892;BME280;21993;42.672;23.296;2023-05-09T08:29:50;95048.19;;;16.04;60.78
35892;BME280;21993;42.672;23.296;2023-05-09T08:32:15;95047.25;;;16.21;60.26
35892;BME280;21993;42.672;23.296;2023-05-09T08:34:41;95050.84;;;16.04;59.23
35892;BME280;21993;42.672;23.296;2023-05-09T08:37:06;95042.69;;;15.97;60.01
35892;BME280;21993;42.672;23.296;2023-05-09T08:39:32;95049.50;;;16.00;61.33
35892;BME280;21993;42.672;23.296;2023-05-09T08:42:00;95050.38;;;16.09;60.86
35892;BME280;21993;42.672;23.296;2023-05-09T08:44:28;95046.72;;;16.10;60.63
35892;BME280;21993;42.672;23.296;2023-05-09T08:46:56;95045.25;;;16.15;60.64
35892;BME280;21993;42.672;23.296;2023-05-09T08:49:23;95032.38;;;16.37;60.58
35892;BME280;21993;42.672;23.296;2023-05-09T08:51:48;95042.47;;;16.33;60.10
35892;BME280;21993;42.672;23.296;2023-05-09T08:54:15;95048.09;;;16.38;60.05
35892;BME280;21993;42.672;23.296;2023-05-09T08:56:41;95040.16;;;16.38;59.37
35892;BME280;21993;42.672;23.296;2023-05-09T08:59:07;95039.34;;;16.54;58.99
35892;BME280;21993;42.672;23.296;2023-05-09T09:01:33;95036.50;;;16.31;59.89
35892;BME280;21993;42.672;23.296;2023-05-09T09:04:04;95037.53;;;15.88;61.08
35892;BME280;21993;42.672;23.296;2023-05-09T09:06:32;95036.47;;;16.07;60.78
35892;BME280;21993;42.672;23.296;2023-05-09T09:08:59;95038.81;;;16.18;60.32
35892;BME280;21993;42.672;23.296;2023-05-09T09:11:28;95038.09;;;15.99;60.83
35892;BME280;21993;42.672;23.296;2023-05-09T09:13:57;95040.44;;;16.19;59.99
35892;BME280;21993;42.672;23.296;2023-05-09T09:16:26;95042.94;;;16.20;60.34
35892;BME280;21993;42.672;23.296;2023-05-09T09:18:54;95044.75;;;16.20;60.37
35892;BME280;21993;42.672;23.296;2023-05-09T09:21:20;95045.75;;;16.19;60.10
35892;BME280;21993;42.672;23.296;2023-05-09T09:23:46;95041.69;;;15.90;60.69
35892;BME280;21993;42.672;23.296;2023-05-09T09:26:13;95036.16;;;16.18;59.83
35892;BME280;21993;42.672;23.296;2023-05-09T09:28:39;95044.28;;;16.24;60.09
35892;BME280;21993;42.672;23.296;2023-05-09T09:31:21;95037.50;;;16.30;59.72
35892;BME280;21993;42.672;23.296;2023-05-09T09:33:48;95038.03;;;16.42;59.40
35892;BME280;21993;42.672;23.296;2023-05-09T09:36:13;95043.31;;;16.42;59.39
35892;BME280;21993;42.672;23.296;2023-05-09T09:38:40;95045.78;;;16.35;59.58
35892;BME280;21993;42.672;23.296;2023-05-09T09:41:08;95043.09;;;16.19;60.63
35892;BME280;21993;42.672;23.296;2023-05-09T09:43:35;95050.13;;;15.94;61.27
35892;BME280;21993;42.672;23.296;2023-05-09T09:46:02;95040.22;;;15.96;61.62
35892;BME280;21993;42.672;23.296;2023-05-09T09:48:32;95044.69;;;15.95;61.83
35892;BME280;21993;42.672;23.296;2023-05-09T09:51:07;95039.31;;;15.79;62.26
35892;BME280;21993;42.672;23.296;2023-05-09T09:53:41;95051.81;;;15.61;62.70
35892;BME280;21993;42.672;23.296;2023-05-09T09:56:07;95047.81;;;15.57;62.98
35892;BME280;21993;42.672;23.296;2023-05-09T09:58:32;95052.34;;;15.64;62.87
35892;BME280;21993;42.672;23.296;2023-05-09T10:01:09;95054.81;;;15.40;63.08
35892;BME280;21993;42.672;23.296;2023-05-09T10:03:39;95048.72;;;15.39;63.41
35892;BME280;21993;42.672;23.296;2023-05-09T10:06:09;95053.16;;;15.39;63.20
35892;BME280;21993;42.672;23.296;2023-05-09T10:08:35;95049.88;;;15.45;63.30
35892;BME280;21993;42.672;23.296;2023-05-09T10:11:00;95045.97;;;15.23;63.57
35892;BME280;21993;42.672;23.296;2023-05-09T10:13:27;95035.94;;;15.35;62.67
35892;BME280;21993;42.672;23.296;2023-05-09T10:15:53;95036.19;;;15.49;63.02
35892;BME280;21993;42.672;23.296;2023-05-09T10:18:24;95034.78;;;15.63;62.41
35892;BME280;21993;42.672;23.296;2023-05-09T10:20:52;95043.47;;;15.47;62.59
35892;BME280;21993;42.672;23.296;2023-05-09T10:23:19;95041.84;;;15.29;63.19
35892;BME280;21993;42.672;23.296;2023-05-09T10:25:57;95031.16;;;15.38;63.30
35892;BME280;21993;42.672;23.296;2023-05-09T10:28:28;95035.56;;;15.30;64.64
35892;BME280;21993;42.672;23.296;2023-05-09T10:30:58;95036.09;;;15.33;64.50
35892;BME280;21993;42.672;23.296;2023-05-09T10:33:40;95034.53;;;15.48;63.93
35892;BME280;21993;42.672;23.296;2023-05-09T10:36:07;95030.91;;;15.49;63.46
35892;BME280;21993;42.672;23.296;2023-05-09T10:38:34;95024.56;;;15.42;63.90
35892;BME280;21993;42.672;23.296;2023-05-09T10:41:02;95025.72;;;15.40;64.39
35892;BME280;21993;42.672;23.296;2023-05-09T10:43:27;95037.88;;;15.25;64.89
35892;BME280;21993;42.672;23.296;2023-05-09T10:45:54;95032.25;;;15.28;64.84
35892;BME280;21993;42.672;23.296;2023-05-09T10:48:20;95029.44;;;15.03;64.58
35892;BME280;21993;42.672;23.296;2023-05-09T10:50:47;95017.91;;;15.30;64.39
35892;BME280;21993;42.672;23.296;2023-05-09T10:53:13;95026.06;;;15.45;64.13
35892;BME280;21993;42.672;23.296;2023-05-09T10:55:55;95029.09;;;15.50;64.54
35892;BME280;21993;42.672;23.296;2023-05-09T10:58:28;95023.16;;;15.56;64.60
35892;BME280;21993;42.672;23.296;2023-05-09T11:00:56;95034.56;;;15.57;64.62
35892;BME280;21993;42.672;23.296;2023-05-09T11:03:22;95030.72;;;15.51;64.54
35892;BME280;21993;42.672;23.296;2023-05-09T11:05:51;95026.88;;;15.45;64.63
35892;BME280;21993;42.672;23.296;2023-05-09T11:08:24;95023.06;;;15.66;64.05
35892;BME280;21993;42.672;23.296;2023-05-09T11:10:53;95036.53;;;15.55;63.27
35892;BME280;21993;42.672;23.296;2023-05-09T11:13:24;95021.47;;;15.55;63.84
35892;BME280;21993;42.672;23.296;2023-05-09T11:18:31;95025.25;;;15.79;62.82
35892;BME280;21993;42.672;23.296;2023-05-09T11:20:58;95028.94;;;15.86;63.04
35892;BME280;21993;42.672;23.296;2023-05-09T11:23:28;95038.44;;;16.13;62.21
35892;BME280;21993;42.672;23.296;2023-05-09T11:26:04;95026.16;;;16.03;62.54
35892;BME280;21993;42.672;23.296;2023-05-09T11:28:35;95033.78;;;15.98;61.97
35892;BME280;21993;42.672;23.296;2023-05-09T11:31:14;95018.88;;;16.05;61.36
35892;BME280;21993;42.672;23.296;2023-05-09T11:33:41;95033.66;;;16.16;61.59
35892;BME280;21993;42.672;23.296;2023-05-09T11:36:18;95028.22;;;16.18;61.61
35892;BME280;21993;42.672;23.296;2023-05-09T11:38:47;95029.84;;;16.11;61.60
35892;BME280;21993;42.672;23.296;2023-05-09T11:41:13;95025.22;;;16.21;62.03
35892;BME280;21993;42.672;23.296;2023-05-09T11:43:38;95017.63;;;16.26;61.71
35892;BME280;21993;42.672;23.296;2023-05-09T11:46:04;95023.94;;;16.41;61.10
35892;BME280;21993;42.672;23.296;2023-05-09T11:48:36;95016.00;;;16.33;60.94
35892;BME280;21993;42.672;23.296;2023-05-09T11:51:01;95024.94;;;16.40;60.88
35892;BME280;21993;42.672;23.296;2023-05-09T11:53:28;95021.81;;;16.53;60.86
35892;BME280;21993;42.672;23.296;2023-05-09T11:55:53;95017.97;;;16.39;60.44
35892;BME280;21993;42.672;23.296;2023-05-09T11:58:19;95026.25;;;16.36;61.02
35892;BME280;21993;42.672;23.296;2023-05-09T12:00:44;95025.56;;;16.18;61.39
35892;BME280;21993;42.672;23.296;2023-05-09T12:03:10;95015.47;;;16.38;61.43
35892;BME280;21993;42.672;23.296;2023-05-09T12:05:38;95031.28;;;15.97;61.56
35892;BME280;21993;42.672;23.296;2023-05-09T12:08:05;95024.97;;;15.82;62.01
35892;BME280;21993;42.672;23.296;2023-05-09T12:10:31;95022.88;;;16.01;61.58
35892;BME280;21993;42.672;23.296;2023-05-09T12:13:00;95018.47;;;15.76;61.98
35892;BME280;21993;42.672;23.296;2023-05-09T12:15:26;95028.59;;;15.89;62.00
35892;BME280;21993;42.672;23.296;2023-05-09T12:18:05;95033.72;;;15.48;61.92
35892;BME280;21993;42.672;23.296;2023-05-09T12:20:46;95036.59;;;15.37;62.37
35892;BME280;21993;42.672;23.296;2023-05-09T12:23:12;95022.16;;;15.23;63.11
35892;BME280;21993;42.672;23.296;2023-05-09T12:25:45;95024.47;;;15.00;64.11
35892;BME280;21993;42.672;23.296;2023-05-09T12:28:11;95021.63;;;15.19;63.89
35892;BME280;21993;42.672;23.296;2023-05-09T12:30:37;95031.38;;;15.19;63.61
35892;BME280;21993;42.672;23.296;2023-05-09T12:33:03;95032.41;;;15.00;64.00
35892;BME280;21993;42.672;23.296;2023-05-09T12:35:29;95018.59;;;15.06;64.35
35892;BME280;21993;42.672;23.296;2023-05-09T12:37:55;95026.47;;;15.24;64.17
35892;BME280;21993;42.672;23.296;2023-05-09T12:40:22;95022.44;;;15.20;64.57
35892;BME280;21993;42.672;23.296;2023-05-09T12:42:47;95018.56;;;15.32;64.06
35892;BME280;21993;42.672;23.296;2023-05-09T12:45:13;95023.22;;;15.38;63.73
35892;BME280;21993;42.672;23.296;2023-05-09T12:47:39;95012.03;;;15.53;63.70
35892;BME280;21993;42.672;23.296;2023-05-09T12:50:06;95024.31;;;15.28;63.79
35892;BME280;21993;42.672;23.296;2023-05-09T12:52:33;95019.84;;;15.02;64.60
35892;BME280;21993;42.672;23.296;2023-05-09T12:55:07;95027.31;;;14.81;65.57
35892;BME280;21993;42.672;23.296;2023-05-09T12:57:34;95011.25;;;14.39;66.92